createdAt,value
2023-03-21T00:01:50.757Z,9.81
2023-03-21T00:04:18.481Z,9.89
2023-03-21T00:06:46.574Z,9.87
2023-03-21T00:09:14.298Z,9.88
2023-03-21T00:11:43.685Z,9.82
2023-03-21T00:14:14.384Z,9.85
2023-03-21T00:16:45.882Z,9.87
2023-03-21T00:19:14.484Z,9.84
2023-03-21T00:22:06.045Z,9.85
2023-03-21T00:24:30.791Z,9.87
2023-03-21T00:27:12.554Z,9.81
2023-03-21T00:29:49.305Z,9.79
2023-03-21T00:32:19.084Z,9.75
2023-03-21T00:35:01.384Z,9.73
2023-03-21T00:37:34.324Z,9.74
2023-03-21T00:40:16.392Z,9.71
2023-03-21T00:42:52.461Z,9.74
2023-03-21T00:45:21.972Z,9.73
2023-03-21T00:47:49.796Z,9.70
2023-03-21T00:50:18.144Z,9.71
2023-03-21T00:52:46.089Z,9.70
2023-03-21T00:55:14.849Z,9.73
2023-03-21T00:57:45.314Z,9.74
2023-03-21T01:00:17.988Z,9.73
2023-03-21T01:03:02.594Z,9.73
2023-03-21T01:05:50.558Z,9.70
2023-03-21T01:08:25.366Z,9.70
2023-03-21T01:10:54.682Z,9.68
2023-03-21T01:13:23.188Z,9.70
2023-03-21T01:15:53.261Z,9.70
2023-03-21T01:18:21.946Z,9.68
2023-03-21T01:20:50.820Z,9.70
2023-03-21T01:23:18.688Z,9.65
2023-03-21T01:25:48.238Z,9.68
2023-03-21T01:28:16.165Z,9.65
2023-03-21T01:30:45.958Z,9.65
2023-03-21T01:33:15.498Z,9.61
2023-03-21T01:35:50.391Z,9.58
2023-03-21T01:38:21.854Z,9.55
2023-03-21T01:40:51.152Z,9.50
2023-03-21T01:43:27.197Z,9.40
2023-03-21T01:46:11.371Z,9.31
2023-03-21T01:49:02.150Z,9.24
2023-03-21T01:51:31.793Z,9.24
2023-03-21T01:54:00.580Z,9.17
2023-03-21T01:56:32.922Z,9.07
2023-03-21T01:59:09.364Z,9.05
2023-03-21T02:01:57.097Z,9.09
2023-03-21T02:04:30.305Z,9.10
2023-03-21T02:07:13.079Z,9.15
2023-03-21T02:09:48.168Z,9.19
2023-03-21T02:12:21.739Z,9.23
2023-03-21T02:14:51.115Z,9.29
2023-03-21T02:17:29.610Z,9.26
2023-03-21T02:20:08.934Z,9.43
2023-03-21T02:22:52.445Z,9.84
2023-03-21T02:25:34.220Z,10.05
2023-03-21T02:28:07.940Z,10.23
2023-03-21T02:30:56.544Z,10.39
2023-03-21T02:33:36.996Z,10.38
2023-03-21T02:36:16.736Z,10.60
2023-03-21T02:38:49.219Z,10.70
2023-03-21T02:41:20.211Z,10.71
2023-03-21T02:43:53.327Z,10.80
2023-03-21T02:46:28.345Z,10.84
2023-03-21T02:49:04.177Z,10.89
2023-03-21T02:51:32.174Z,10.81
2023-03-21T02:54:28.157Z,10.89
2023-03-21T02:56:52.954Z,11.10
2023-03-21T02:59:22.637Z,11.07
2023-03-21T03:01:52.373Z,11.18
2023-03-21T03:04:21.271Z,11.21
2023-03-21T03:06:57.811Z,11.25
2023-03-21T03:09:32.452Z,11.27
2023-03-21T03:12:06.147Z,11.34
2023-03-21T03:14:53.145Z,11.30
2023-03-21T03:17:34.272Z,11.18
2023-03-21T03:20:16.457Z,11.11
2023-03-21T03:22:50.759Z,11.04
2023-03-21T03:25:35.864Z,11.20
2023-03-21T03:28:10.013Z,11.18
2023-03-21T03:30:43.340Z,11.22
2023-03-21T03:33:17.213Z,11.20
2023-03-21T03:35:48.312Z,11.15
2023-03-21T03:38:22.920Z,11.21
2023-03-21T03:40:56.245Z,11.20
2023-03-21T03:43:52.283Z,11.08
2023-03-21T03:46:24.250Z,11.06
2023-03-21T03:48:54.663Z,10.90
2023-03-21T03:51:24.908Z,10.89
2023-03-21T03:54:12.570Z,10.94
2023-03-21T03:56:41.919Z,10.87
2023-03-21T03:59:10.187Z,10.85
2023-03-21T04:01:54.833Z,10.99
2023-03-21T04:04:29.485Z,10.93
2023-03-21T04:06:58.965Z,10.90
2023-03-21T04:09:42.613Z,10.93
2023-03-21T04:12:13.067Z,10.90
2023-03-21T04:14:46.069Z,11.03
2023-03-21T04:17:16.645Z,10.93
2023-03-21T04:19:45.434Z,10.90
2023-03-21T04:22:13.531Z,10.87
2023-03-21T04:24:44.098Z,10.89
2023-03-21T04:27:13.646Z,10.91
2023-03-21T04:29:43.600Z,10.99
2023-03-21T04:32:33.859Z,10.89
2023-03-21T04:35:09.796Z,10.83
2023-03-21T04:37:39.195Z,10.83
2023-03-21T04:40:11.205Z,10.90
2023-03-21T04:42:40.722Z,10.84
2023-03-21T04:45:09.081Z,10.85
2023-03-21T04:47:36.770Z,10.87
2023-03-21T04:50:04.725Z,10.80
2023-03-21T04:52:32.400Z,10.84
2023-03-21T04:55:00.953Z,10.76
2023-03-21T04:57:28.691Z,10.63
2023-03-21T04:59:57.736Z,10.71
2023-03-21T05:02:25.632Z,10.76
2023-03-21T05:04:53.517Z,10.76
2023-03-21T05:07:26.338Z,10.73
2023-03-21T05:09:55.346Z,10.70
2023-03-21T05:12:23.296Z,10.76
2023-03-21T05:14:51.104Z,10.69
2023-03-21T05:17:23.338Z,10.76
2023-03-21T05:19:52.867Z,10.66
2023-03-21T05:22:20.973Z,10.66
2023-03-21T05:24:50.287Z,10.71
2023-03-21T05:27:37.116Z,10.64
2023-03-21T05:30:10.568Z,10.70
2023-03-21T05:32:39.884Z,10.57
2023-03-21T05:35:11.246Z,10.48
2023-03-21T05:37:39.267Z,10.32
2023-03-21T05:40:09.270Z,10.23
2023-03-21T05:42:39.593Z,10.25
2023-03-21T05:45:16.799Z,10.38
2023-03-21T05:47:45.899Z,10.25
2023-03-21T05:50:15.993Z,10.15
2023-03-21T05:52:49.731Z,10.06
2023-03-21T05:55:17.482Z,9.99
2023-03-21T05:57:45.709Z,9.99
2023-03-21T06:00:25.382Z,10.11
2023-03-21T06:03:29.740Z,10.09
2023-03-21T06:06:07.751Z,10.03
2023-03-21T06:08:40.285Z,9.99
2023-03-21T06:11:12.664Z,9.95
2023-03-21T06:13:40.472Z,9.92
2023-03-21T06:16:09.155Z,9.84
2023-03-21T06:18:38.731Z,9.99
2023-03-21T06:21:19.412Z,9.98
2023-03-21T06:23:51.524Z,9.97
2023-03-21T06:26:22.810Z,10.01
2023-03-21T06:28:54.889Z,10.09
2023-03-21T06:31:25.154Z,10.06
2023-03-21T06:33:55.966Z,10.05
2023-03-21T06:36:23.691Z,10.03
2023-03-21T06:38:51.983Z,10.01
2023-03-21T06:41:20.326Z,9.98
2023-03-21T06:44:01.408Z,10.11
2023-03-21T06:46:32.336Z,10.15
2023-03-21T06:49:01.688Z,10.13
2023-03-21T06:51:30.814Z,10.09
2023-03-21T06:54:10.646Z,10.11
2023-03-21T06:56:49.824Z,10.28
2023-03-21T06:59:24.462Z,10.22
2023-03-21T07:02:07.807Z,10.26
2023-03-21T07:04:42.242Z,10.43
2023-03-21T07:07:15.694Z,10.53
2023-03-21T07:09:43.769Z,10.50
2023-03-21T07:12:11.539Z,10.52
2023-03-21T07:14:57.625Z,10.55
2023-03-21T07:17:25.565Z,10.57
2023-03-21T07:19:54.681Z,10.61
2023-03-21T07:22:22.511Z,10.71
2023-03-21T07:25:02.412Z,10.71
2023-03-21T07:27:33.578Z,10.70
2023-03-21T07:30:01.250Z,10.76
2023-03-21T07:32:30.044Z,10.79
2023-03-21T07:35:01.575Z,10.81
2023-03-21T07:37:29.486Z,10.79
2023-03-21T07:39:57.597Z,10.79
2023-03-21T07:42:26.505Z,10.93
2023-03-21T07:45:00.233Z,10.91
2023-03-21T07:47:33.662Z,10.91
2023-03-21T07:50:04.431Z,10.83
2023-03-21T07:52:32.813Z,10.87
2023-03-21T07:55:00.462Z,10.83
2023-03-21T07:57:28.150Z,10.93
2023-03-21T07:59:55.841Z,10.96
2023-03-21T08:02:23.494Z,11.01
2023-03-21T08:04:51.479Z,11.15
2023-03-21T08:07:20.570Z,11.08
2023-03-21T08:09:48.252Z,11.21
2023-03-21T08:12:16.783Z,11.25
2023-03-21T08:14:44.433Z,11.35
2023-03-21T08:17:12.321Z,11.45
2023-03-21T08:19:39.973Z,11.46
2023-03-21T08:22:07.616Z,11.62
2023-03-21T08:24:36.646Z,11.62
2023-03-21T08:27:04.431Z,11.69
2023-03-21T08:29:32.116Z,11.62
2023-03-21T08:31:59.782Z,11.41
2023-03-21T08:34:27.864Z,11.18
2023-03-21T08:36:55.570Z,11.10
2023-03-21T08:39:24.895Z,11.04
2023-03-21T08:41:53.973Z,11.04
2023-03-21T08:44:22.130Z,11.08
2023-03-21T08:46:49.799Z,11.08
2023-03-21T08:49:17.536Z,11.14
2023-03-21T08:51:45.741Z,11.15
2023-03-21T08:54:19.740Z,11.27
2023-03-21T08:56:47.430Z,11.21
2023-03-21T08:59:16.693Z,11.18
2023-03-21T09:01:45.081Z,11.24
2023-03-21T09:04:12.859Z,11.27
2023-03-21T09:06:48.044Z,11.32
2023-03-21T09:09:15.962Z,11.38
2023-03-21T09:11:43.841Z,11.52
2023-03-21T09:14:11.739Z,11.63
2023-03-21T09:16:41.284Z,11.66
2023-03-21T09:19:09.698Z,11.76
2023-03-21T09:21:38.235Z,12.00
2023-03-21T09:24:06.754Z,12.00
2023-03-21T09:26:34.882Z,12.09
2023-03-21T09:29:03.682Z,12.33
2023-03-21T09:31:31.347Z,12.51
2023-03-21T09:34:00.398Z,12.69
2023-03-21T09:36:28.238Z,12.96
2023-03-21T09:38:56.977Z,13.20
2023-03-21T09:41:33.047Z,13.20
2023-03-21T09:44:08.179Z,13.11
2023-03-21T09:46:41.024Z,13.05
2023-03-21T09:49:11.338Z,12.99
2023-03-21T09:51:41.279Z,12.84
2023-03-21T09:54:13.860Z,12.92
2023-03-21T09:56:42.482Z,12.81
2023-03-21T09:59:15.660Z,12.78
2023-03-21T10:01:45.476Z,12.84
2023-03-21T10:04:16.728Z,12.94
2023-03-21T10:06:45.771Z,12.92
2023-03-21T10:09:16.180Z,13.20
2023-03-21T10:11:45.050Z,13.27
2023-03-21T10:14:17.477Z,13.27
2023-03-21T10:16:46.672Z,13.11
2023-03-21T10:19:18.333Z,12.92
2023-03-21T10:22:00.127Z,12.74
2023-03-21T10:24:29.729Z,12.65
2023-03-21T10:26:57.948Z,12.60
2023-03-21T10:29:28.098Z,12.61
2023-03-21T10:31:56.440Z,12.48
2023-03-21T10:34:29.490Z,12.43
2023-03-21T10:36:57.150Z,12.44
2023-03-21T10:39:27.482Z,12.36
2023-03-21T10:41:55.166Z,12.36
2023-03-21T10:44:22.895Z,12.27
2023-03-21T10:46:52.311Z,12.24
2023-03-21T10:49:21.572Z,12.26
2023-03-21T10:51:52.928Z,12.23
2023-03-21T10:54:21.944Z,12.24
2023-03-21T10:56:53.953Z,12.19
2023-03-21T10:59:22.743Z,12.17
2023-03-21T11:01:51.636Z,12.12
2023-03-21T11:04:20.645Z,12.09
2023-03-21T11:06:53.229Z,12.04
2023-03-21T11:09:24.858Z,11.99
2023-03-21T11:11:53.971Z,11.94
2023-03-21T11:14:26.202Z,11.87
2023-03-21T11:16:53.900Z,11.89
2023-03-21T11:19:27.666Z,11.83
2023-03-21T11:21:57.502Z,11.92
2023-03-21T11:24:29.503Z,11.89
2023-03-21T11:26:57.683Z,12.06
2023-03-21T11:29:28.457Z,12.10
2023-03-21T11:31:59.791Z,12.19
2023-03-21T11:34:29.024Z,12.16
2023-03-21T11:40:06.264Z,12.30
2023-03-21T11:42:40.960Z,12.38
2023-03-21T11:45:13.367Z,12.45
2023-03-21T11:47:41.174Z,12.41
2023-03-21T11:50:27.047Z,12.36
2023-03-21T11:53:02.731Z,12.37
2023-03-21T11:55:37.558Z,12.43
2023-03-21T11:58:14.904Z,12.55
2023-03-21T12:00:46.660Z,12.58
2023-03-21T12:03:46.820Z,12.65
2023-03-21T12:06:20.600Z,12.84
2023-03-21T12:08:52.559Z,12.87
2023-03-21T12:11:26.028Z,12.82
2023-03-21T12:14:00.021Z,12.98
2023-03-21T12:16:34.168Z,13.12
2023-03-21T12:19:07.712Z,13.45
2023-03-21T12:21:37.413Z,13.53
2023-03-21T12:24:07.570Z,13.59
2023-03-21T12:26:41.372Z,13.60
2023-03-21T12:29:14.439Z,13.62
2023-03-21T12:34:31.051Z,13.69
2023-03-21T12:37:08.723Z,13.70
2023-03-21T12:39:38.106Z,13.98
2023-03-21T12:42:29.662Z,14.35
2023-03-21T12:45:06.144Z,14.46
2023-03-21T12:47:36.669Z,15.14
2023-03-21T12:50:14.511Z,15.58
2023-03-21T12:52:45.006Z,15.58
2023-03-21T12:55:19.902Z,15.85
2023-03-21T12:57:57.128Z,15.68
2023-03-21T13:00:29.721Z,15.54
2023-03-21T13:03:01.311Z,15.47
2023-03-21T13:05:32.776Z,15.16
2023-03-21T13:08:04.848Z,15.34
2023-03-21T13:10:34.781Z,15.26
2023-03-21T13:13:13.478Z,15.26
2023-03-21T13:15:52.356Z,15.43
2023-03-21T13:18:29.448Z,15.43
2023-03-21T13:21:00.770Z,15.22
2023-03-21T13:23:36.148Z,15.19
2023-03-21T13:26:04.645Z,15.11
2023-03-21T13:28:35.812Z,15.24
2023-03-21T13:31:21.515Z,15.64
2023-03-21T13:33:50.637Z,15.47
2023-03-21T13:36:25.708Z,15.55
2023-03-21T13:38:55.688Z,15.59
2023-03-21T13:41:29.556Z,15.38
2023-03-21T13:44:09.822Z,15.41
2023-03-21T13:46:53.561Z,15.33
2023-03-21T13:49:31.878Z,15.34
2023-03-21T13:52:02.612Z,15.28
2023-03-21T13:54:48.108Z,15.16
2023-03-21T13:57:38.235Z,15.24
2023-03-21T14:00:20.283Z,15.11
2023-03-21T14:02:56.604Z,15.28
2023-03-21T14:05:26.539Z,15.34
2023-03-21T14:08:12.253Z,15.23
2023-03-21T14:10:46.108Z,15.24
2023-03-21T14:13:19.090Z,15.36
2023-03-21T14:15:56.315Z,15.65
2023-03-21T14:18:35.289Z,15.77
2023-03-21T14:21:23.351Z,15.62
2023-03-21T14:24:01.934Z,15.37
2023-03-21T14:26:33.490Z,15.10
2023-03-21T14:29:05.229Z,14.82
2023-03-21T14:31:33.810Z,14.69
2023-03-21T14:34:03.726Z,14.75
2023-03-21T14:36:34.594Z,14.89
2023-03-21T14:39:13.271Z,14.87
2023-03-21T14:41:47.441Z,15.11
2023-03-21T14:44:28.720Z,15.27
2023-03-21T14:47:02.457Z,15.48
2023-03-21T14:49:32.045Z,15.54
2023-03-21T14:52:02.202Z,15.44
2023-03-21T14:54:32.304Z,15.26
2023-03-21T14:57:02.838Z,14.87
2023-03-21T14:59:34.549Z,14.85
2023-03-21T15:02:05.531Z,14.75
2023-03-21T15:04:34.037Z,14.85
2023-03-21T15:07:05.097Z,14.86
2023-03-21T15:09:35.433Z,14.87
2023-03-21T15:12:08.558Z,14.97
2023-03-21T15:14:38.368Z,14.97
2023-03-21T15:17:07.696Z,14.83
2023-03-21T15:19:36.883Z,14.82
2023-03-21T15:22:09.353Z,14.72
2023-03-21T15:24:42.578Z,14.68
2023-03-21T15:27:16.136Z,14.72
2023-03-21T15:29:44.692Z,14.72
2023-03-21T15:32:18.647Z,14.75
2023-03-21T15:34:47.311Z,14.76
2023-03-21T15:37:18.475Z,14.76
2023-03-21T15:39:49.324Z,14.79
2023-03-21T15:42:30.213Z,14.72
2023-03-21T15:45:02.045Z,14.80
2023-03-21T15:47:51.086Z,14.96
2023-03-21T15:50:27.320Z,15.13
2023-03-21T15:52:56.672Z,15.14
2023-03-21T15:55:30.060Z,15.20
2023-03-21T15:58:01.967Z,15.20
2023-03-21T16:00:38.630Z,15.19
2023-03-21T16:03:10.234Z,15.08
2023-03-21T16:05:38.489Z,14.99
2023-03-21T16:08:22.111Z,14.89
2023-03-21T16:10:51.696Z,14.77
2023-03-21T16:13:19.359Z,14.77
2023-03-21T16:15:47.519Z,14.77
2023-03-21T16:18:18.011Z,14.77
2023-03-21T16:20:49.179Z,14.83
2023-03-21T16:23:17.948Z,14.80
2023-03-21T16:25:45.855Z,14.77
2023-03-21T16:28:17.865Z,14.76
2023-03-21T16:30:45.979Z,14.69
2023-03-21T16:33:14.500Z,14.69
2023-03-21T16:35:42.473Z,14.69
2023-03-21T16:38:11.119Z,14.64
2023-03-21T16:40:41.445Z,14.64
2023-03-21T16:43:09.860Z,14.61
2023-03-21T16:45:39.172Z,14.51
2023-03-21T16:48:08.893Z,14.45
2023-03-21T16:50:41.330Z,14.46
2023-03-21T16:53:10.057Z,14.39
2023-03-21T16:55:38.825Z,14.35
2023-03-21T16:58:06.945Z,14.34
2023-03-21T17:00:36.331Z,14.31
2023-03-21T17:03:15.158Z,14.28
2023-03-21T17:05:46.096Z,14.26
2023-03-21T17:08:16.844Z,14.24
2023-03-21T17:10:44.999Z,14.21
2023-03-21T17:13:12.961Z,14.20
2023-03-21T17:15:41.837Z,14.14
2023-03-21T17:18:11.494Z,14.07
2023-03-21T17:20:41.719Z,14.01
2023-03-21T17:23:10.320Z,14.04
2023-03-21T17:25:38.231Z,14.04
2023-03-21T17:28:06.384Z,14.00
2023-03-21T17:30:40.084Z,13.97
2023-03-21T17:33:08.774Z,13.90
2023-03-21T17:35:38.962Z,13.90
2023-03-21T17:38:07.971Z,13.88
2023-03-21T17:40:35.882Z,13.80
2023-03-21T17:43:03.795Z,13.86
2023-03-21T17:45:31.723Z,13.87
2023-03-21T17:47:59.591Z,13.71
2023-03-21T17:50:34.043Z,13.60
2023-03-21T17:53:03.324Z,13.56
2023-03-21T17:55:31.425Z,13.56
2023-03-21T17:57:59.565Z,13.54
2023-03-21T18:00:29.470Z,13.50
2023-03-21T18:02:58.005Z,13.50
2023-03-21T18:05:27.370Z,13.45
2023-03-21T18:08:12.514Z,13.45
2023-03-21T18:10:43.038Z,13.42
2023-03-21T18:13:11.711Z,13.39
2023-03-21T18:15:44.082Z,13.35
2023-03-21T18:18:13.042Z,13.27
2023-03-21T18:20:58.415Z,13.26
2023-03-21T18:23:26.927Z,13.23
2023-03-21T18:25:56.321Z,13.15
2023-03-21T18:28:24.270Z,13.18
2023-03-21T18:31:14.252Z,13.19
2023-03-21T18:33:45.089Z,13.15
2023-03-21T18:36:16.223Z,13.18
2023-03-21T18:38:44.264Z,13.11
2023-03-21T18:41:15.051Z,13.12
2023-03-21T18:46:31.595Z,13.12
2023-03-21T18:49:20.011Z,13.15
2023-03-21T18:51:47.958Z,13.11
2023-03-21T18:54:15.935Z,13.09
2023-03-21T18:59:39.124Z,13.01
2023-03-21T19:02:07.719Z,13.01
2023-03-21T19:04:37.325Z,12.94
2023-03-21T19:07:05.653Z,12.89
2023-03-21T19:09:54.839Z,12.85
2023-03-21T19:12:22.962Z,12.85
2023-03-21T19:14:50.666Z,12.85
2023-03-21T19:20:07.441Z,12.78
2023-03-21T19:22:35.617Z,12.80
2023-03-21T19:25:05.576Z,12.75
2023-03-21T19:27:35.829Z,12.77
2023-03-21T19:30:13.973Z,12.74
2023-03-21T19:32:42.657Z,12.68
2023-03-21T19:35:11.216Z,12.67
2023-03-21T19:37:39.152Z,12.63
2023-03-21T19:40:09.067Z,12.57
2023-03-21T19:42:38.319Z,12.57
2023-03-21T19:45:06.502Z,12.54
2023-03-21T19:47:34.383Z,12.53
2023-03-21T19:52:50.083Z,12.57
2023-03-21T19:55:18.024Z,12.54
2023-03-21T19:57:49.143Z,12.51
2023-03-21T20:00:18.773Z,12.53
2023-03-21T20:02:47.251Z,12.45
2023-03-21T20:05:17.052Z,12.33
2023-03-21T20:07:45.018Z,12.22
2023-03-21T20:10:12.957Z,12.13
2023-03-21T20:12:40.839Z,12.13
2023-03-21T20:15:17.737Z,12.06
2023-03-21T20:17:48.038Z,11.99
2023-03-21T20:20:18.349Z,11.89
2023-03-21T20:23:07.493Z,11.85
2023-03-21T20:25:36.587Z,11.82
2023-03-21T20:28:26.009Z,11.79
2023-03-21T20:30:56.988Z,11.75
2023-03-21T20:33:25.508Z,11.72
2023-03-21T20:38:50.898Z,11.72
2023-03-21T20:41:19.092Z,11.66
2023-03-21T20:44:28.508Z,11.65
2023-03-21T20:46:37.710Z,11.63
2023-03-21T20:49:07.276Z,11.57
2023-03-21T20:54:23.906Z,11.57
2023-03-21T20:56:51.840Z,11.55
2023-03-21T20:59:26.404Z,11.59
2023-03-21T21:01:57.173Z,11.63
2023-03-21T21:04:44.140Z,11.68
2023-03-21T21:07:15.995Z,11.65
2023-03-21T21:09:44.587Z,11.65
2023-03-21T21:12:13.005Z,11.57
2023-03-21T21:14:41.425Z,11.49
2023-03-21T21:17:28.321Z,11.49
2023-03-21T21:20:01.523Z,11.41
2023-03-21T21:22:29.618Z,11.45
2023-03-21T21:24:57.481Z,11.51
2023-03-21T21:27:26.019Z,11.51
2023-03-21T21:29:53.837Z,11.49
2023-03-21T21:32:23.159Z,11.55
2023-03-21T21:34:50.830Z,11.62
2023-03-21T21:37:18.727Z,11.61
2023-03-21T21:39:46.729Z,11.66
2023-03-21T21:42:14.675Z,11.68
2023-03-21T21:44:44.951Z,11.72
2023-03-21T21:47:13.012Z,11.71
2023-03-21T21:49:42.414Z,11.73
2023-03-21T21:52:13.314Z,11.73
2023-03-21T21:54:45.488Z,11.71
2023-03-21T21:57:13.971Z,11.66
2023-03-21T21:59:41.936Z,11.59
2023-03-21T22:02:11.736Z,11.55
2023-03-21T22:04:39.646Z,11.52
2023-03-21T22:07:14.668Z,11.48
2023-03-21T22:09:43.178Z,11.43
2023-03-21T22:12:11.364Z,11.41
2023-03-21T22:14:39.198Z,11.34
2023-03-21T22:17:07.304Z,11.32
2023-03-21T22:19:35.199Z,11.31
2023-03-21T22:22:03.122Z,11.34
2023-03-21T22:24:32.327Z,11.36
2023-03-21T22:27:00.213Z,11.38
2023-03-21T22:29:28.786Z,11.38
2023-03-21T22:31:56.783Z,11.39
2023-03-21T22:34:26.076Z,11.42
2023-03-21T22:36:55.809Z,11.43
2023-03-21T22:39:26.196Z,11.45
2023-03-21T22:41:57.787Z,11.48
2023-03-21T22:44:25.736Z,11.48
2023-03-21T22:46:53.557Z,11.52
2023-03-21T22:49:21.383Z,11.49
2023-03-21T22:51:49.246Z,11.46
2023-03-21T22:54:17.146Z,11.51
2023-03-21T22:56:45.202Z,11.57
2023-03-21T22:59:14.366Z,11.57
2023-03-21T23:01:42.220Z,11.57
2023-03-21T23:04:10.193Z,11.57
2023-03-21T23:06:38.232Z,11.54
2023-03-21T23:09:06.127Z,11.51
2023-03-21T23:11:34.019Z,11.55
2023-03-21T23:14:08.118Z,11.54
2023-03-21T23:16:38.663Z,11.54
2023-03-21T23:19:08.094Z,11.54
2023-03-21T23:21:38.204Z,11.54
2023-03-21T23:24:06.602Z,11.54
2023-03-21T23:26:35.247Z,11.54
2023-03-21T23:29:03.205Z,11.51
2023-03-21T23:31:32.875Z,11.51
2023-03-21T23:34:02.641Z,11.52
2023-03-21T23:36:31.136Z,11.51
2023-03-21T23:38:59.203Z,11.49
2023-03-21T23:41:27.385Z,11.48
2023-03-21T23:43:55.324Z,11.45
2023-03-21T23:46:23.242Z,11.41
2023-03-21T23:48:51.125Z,11.38
2023-03-21T23:51:20.299Z,11.32
2023-03-21T23:53:48.506Z,11.30
2023-03-21T23:56:18.706Z,11.22
2023-03-21T23:58:46.979Z,11.21
